Time;durP1;ratioP1;P1;durP2;ratioP2;P2;SDS_P1;SDS_P2;PMS_P1;PMS_P2;Temp;Humidity;BMP_temperature;BMP_pressure;BME280_temperature;BME280_humidity;BME280_pressure;Samples;Min_cycle;Max_cycle;Signal;HPM_P1;HPM_P2
2024/01/30 00:00:29;;;;;;;;;21.50;19.25;;;;;-144.24;100.00;88789.13;5058425;28;45493;-69
2024/01/30 00:02:54;;;;;;;;;23.75;19.25;;;;;-144.24;100.00;88641.34;5075060;28;46154;-68
2024/01/30 00:05:19;;;;;;;;;24.25;17.50;;;;;-144.24;100.00;88835.69;5070468;28;67723;-67
2024/01/30 00:07:45;;;;;;;;;20.75;18.25;;;;;-144.24;100.00;88876.19;5067540;28;66098;-68
2024/01/30 00:10:10;;;;;;;;;20.75;19.00;;;;;-144.24;100.00;88572.50;5057003;28;58953;-67
2024/01/30 00:12:35;;;;;;;;;19.00;18.50;;;;;-144.24;100.00;88453.06;5070181;28;73487;-68
2024/01/30 00:15:01;;;;;;;;;18.75;16.00;;;;;-144.24;100.00;88615.03;5064743;28;45455;-67
2024/01/30 00:17:26;;;;;;;;;20.25;17.75;;;;;-144.24;100.00;88619.06;5077223;28;45430;-68
2024/01/30 00:19:51;;;;;;;;;19.75;18.50;;;;;-144.24;100.00;88598.81;5082015;28;45272;-67
2024/01/30 00:22:17;;;;;;;;;17.00;15.50;;;;;-144.24;100.00;88538.09;5072748;28;70046;-68
2024/01/30 00:24:42;;;;;;;;;19.75;18.50;;;;;-144.24;100.00;88566.44;5079560;28;51775;-68
2024/01/30 00:27:08;;;;;;;;;17.00;14.25;;;;;-144.24;100.00;88558.34;5079950;28;45487;-68
2024/01/30 00:29:33;;;;;;;;;14.50;14.50;;;;;-144.24;100.00;88359.94;5056659;28;57710;-67
2024/01/30 00:31:59;;;;;;;;;21.75;17.50;;;;;-144.24;100.00;88359.94;5067309;28;71856;-68
2024/01/30 00:34:25;;;;;;;;;21.00;13.25;;;;;-144.24;100.00;88422.69;5076140;28;45768;-67
2024/01/30 00:36:50;;;;;;;;;19.00;16.25;;;;;-144.24;100.00;88459.13;5073470;28;45306;-68
2024/01/30 00:39:16;;;;;;;;;19.00;15.25;;;;;-144.24;100.00;88428.78;5077884;28;66196;-68
2024/01/30 00:41:41;;;;;;;;;14.75;14.00;;;;;-144.24;100.00;88380.19;5075505;28;46506;-68
2024/01/30 00:44:06;;;;;;;;;19.75;19.00;;;;;-144.24;100.00;88432.81;5059592;28;66316;-69
2024/01/30 00:46:32;;;;;;;;;20.50;18.00;;;;;-144.24;100.00;88552.25;5070353;28;45406;-67
2024/01/30 00:48:57;;;;;;;;;13.50;13.50;;;;;-144.24;100.00;88461.16;5078326;28;63960;-68
2024/01/30 00:51:22;;;;;;;;;19.75;17.00;;;;;-144.24;100.00;88556.31;5075454;28;64996;-67
2024/01/30 00:53:48;;;;;;;;;21.50;19.75;;;;;-144.24;100.00;88388.28;5059957;28;57359;-67
2024/01/30 00:56:13;;;;;;;;;16.75;16.00;;;;;-144.24;100.00;88414.59;5068199;28;67730;-67
2024/01/30 00:58:39;;;;;;;;;20.75;17.25;;;;;-144.24;100.00;88447.00;5058942;28;45557;-69
2024/01/30 01:01:04;;;;;;;;;21.75;18.00;;;;;-144.24;100.00;88487.47;5081190;28;45547;-68
2024/01/30 01:03:30;;;;;;;;;22.75;19.00;;;;;-144.24;100.00;88412.59;5079641;28;69751;-68
2024/01/30 01:05:55;;;;;;;;;19.00;17.50;;;;;-144.24;100.00;88574.53;5067122;28;53463;-69
2024/01/30 01:08:20;;;;;;;;;17.50;17.50;;;;;-144.24;100.00;88372.09;5059692;28;57524;-68
2024/01/30 01:10:46;;;;;;;;;20.50;17.25;;;;;-144.24;100.00;88402.47;5077277;28;73227;-67
2024/01/30 01:13:11;;;;;;;;;22.00;17.25;;;;;-144.24;100.00;88527.97;5071883;28;67349;-68
2024/01/30 01:15:37;;;;;;;;;19.50;16.25;;;;;-144.24;100.00;88248.63;5078394;28;64016;-68
2024/01/30 01:18:02;;;;;;;;;20.75;19.00;;;;;-144.24;100.00;88309.34;5079810;28;46423;-68
2024/01/30 01:20:28;;;;;;;;;22.75;21.50;;;;;-144.24;100.00;88297.19;5078491;28;46755;-68
2024/01/30 01:22:53;;;;;;;;;18.50;17.50;;;;;-144.24;100.00;88185.88;5076381;28;66913;-69
2024/01/30 01:25:19;;;;;;;;;23.00;21.25;;;;;-144.24;100.00;88119.06;5076486;28;45284;-67
2024/01/30 01:27:51;;;;;;;;;22.50;18.75;;;;;-144.24;100.00;88175.75;5072849;28;45537;-68
2024/01/30 01:30:21;;;;;;;;;23.25;21.50;;;;;-144.24;100.00;88133.22;5065028;28;46710;-67
2024/01/30 01:32:50;;;;;;;;;23.50;19.75;;;;;-144.24;100.00;87944.97;5065031;28;45428;-67
2024/01/30 01:35:16;;;;;;;;;22.50;18.25;;;;;-144.24;100.00;87882.25;5054597;28;45497;-68
2024/01/30 01:37:41;;;;;;;;;18.75;18.00;;;;;-144.24;100.00;88147.41;5077642;28;45478;-68
2024/01/30 01:40:07;;;;;;;;;17.00;16.00;;;;;-144.24;100.00;87969.28;5073935;28;71775;-68
2024/01/30 01:42:33;;;;;;;;;19.25;18.00;;;;;-144.24;100.00;87930.81;5057394;28;45442;-68
2024/01/30 01:44:58;;;;;;;;;18.75;18.00;;;;;-144.24;100.00;87926.78;5066062;28;63257;-68
2024/01/30 01:47:23;;;;;;;;;22.75;17.25;;;;;-144.24;100.00;87857.94;5075688;28;65482;-68
2024/01/30 01:49:49;;;;;;;;;19.75;18.25;;;;;-144.24;100.00;87892.34;5057508;28;71371;-68
2024/01/30 01:52:15;;;;;;;;;17.75;15.75;;;;;-144.24;100.00;87835.69;5056842;28;45498;-67
2024/01/30 01:54:40;;;;;;;;;18.25;14.75;;;;;-144.24;100.00;87884.25;5069890;28;45484;-70
2024/01/30 01:57:06;;;;;;;;;16.00;15.50;;;;;-144.24;100.00;87878.19;5066539;28;58109;-67
2024/01/30 01:59:32;;;;;;;;;16.75;14.50;;;;;-144.24;100.00;87758.78;5069085;28;46840;-67
2024/01/30 02:01:57;;;;;;;;;19.50;16.00;;;;;-144.24;100.00;87900.44;5058944;28;69826;-68
2024/01/30 02:04:22;;;;;;;;;14.75;13.00;;;;;-144.24;100.00;87862.00;5073681;28;61175;-69
2024/01/30 02:06:48;;;;;;;;;12.50;12.50;;;;;-144.24;100.00;87963.19;5044070;28;61627;-69
2024/01/30 02:09:13;;;;;;;;;15.00;12.00;;;;;-144.24;100.00;87764.84;5067397;28;49171;-67
2024/01/30 02:11:40;;;;;;;;;13.00;11.00;;;;;-144.24;100.00;87926.78;5058662;28;45501;-68
2024/01/30 02:14:06;;;;;;;;;18.50;14.25;;;;;-144.24;100.00;87783.06;5065361;28;45462;-68
2024/01/30 02:16:31;;;;;;;;;17.75;15.00;;;;;-144.24;100.00;87550.31;5074743;28;57227;-69
2024/01/30 02:18:57;;;;;;;;;16.50;13.50;;;;;-144.24;100.00;87602.94;5068312;28;45711;-69
2024/01/30 02:21:22;;;;;;;;;15.00;14.25;;;;;-144.24;100.00;87540.19;5057669;28;72257;-68
2024/01/30 02:23:48;;;;;;;;;15.75;15.75;;;;;-144.24;100.00;87681.84;5066323;28;55231;-69
2024/01/30 02:26:13;;;;;;;;;12.00;12.00;;;;;-144.24;100.00;87724.38;5052070;28;65815;-68
2024/01/30 02:28:39;;;;;;;;;17.00;12.33;;;;;-144.24;100.00;87639.34;5058793;28;49216;-68
2024/01/30 02:31:04;;;;;;;;;11.67;9.33;;;;;-144.24;100.00;87562.44;5067502;28;45289;-67
2024/01/30 02:33:30;;;;;;;;;14.25;12.00;;;;;-144.24;100.00;87511.84;5050589;28;45338;-67
2024/01/30 02:35:55;;;;;;;;;16.00;16.00;;;;;-144.24;100.00;87562.44;5057017;28;64968;-68
2024/01/30 02:38:21;;;;;;;;;13.00;11.00;;;;;-144.24;100.00;87497.69;5069052;28;46192;-67
2024/01/30 02:40:46;;;;;;;;;14.00;11.00;;;;;-144.24;100.00;87311.50;5073998;28;45450;-67
2024/01/30 02:43:12;;;;;;;;;11.33;11.33;;;;;-144.24;100.00;87309.47;5032324;28;55007;-68
2024/01/30 02:45:37;;;;;;;;;16.00;12.75;;;;;-144.24;100.00;87360.06;5064665;28;64031;-69
2024/01/30 02:48:02;;;;;;;;;13.50;13.25;;;;;-144.24;100.00;87329.69;5067178;28;58431;-68
2024/01/30 02:50:28;;;;;;;;;15.50;15.50;;;;;-144.24;100.00;87339.81;5068326;28;45477;-69
2024/01/30 02:52:53;;;;;;;;;11.33;11.33;;;;;-144.24;100.00;87260.91;5068995;28;66716;-67
2024/01/30 02:55:19;;;;;;;;;12.25;11.75;;;;;-144.24;100.00;87200.19;5072309;28;45363;-67
2024/01/30 02:57:44;;;;;;;;;11.00;11.00;;;;;-144.24;100.00;87218.41;5051177;28;46037;-68
2024/01/30 03:00:10;;;;;;;;;11.00;11.00;;;;;-144.24;100.00;87240.66;5071321;28;45497;-68
2024/01/30 03:02:36;;;;;;;;;9.33;9.00;;;;;-144.24;100.00;87080.78;5057488;28;45556;-68
2024/01/30 03:05:03;;;;;;;;;12.75;10.50;;;;;-144.24;100.00;87096.97;5072564;28;45476;-68
2024/01/30 03:07:28;;;;;;;;;16.00;12.00;;;;;-144.24;100.00;87109.13;5070745;28;45910;-68
2024/01/30 03:09:55;;;;;;;;;11.25;8.75;;;;;-144.24;100.00;87090.91;5074623;28;45276;-68
2024/01/30 03:12:21;;;;;;;;;11.33;9.00;;;;;-144.24;100.00;87258.88;5072602;28;45442;-68
2024/01/30 03:14:46;;;;;;;;;14.67;11.33;;;;;-144.24;100.00;87101.03;5066089;28;45490;-67
2024/01/30 03:17:11;;;;;;;;;10.67;10.00;;;;;-144.24;100.00;87139.47;5066934;28;71168;-68
2024/01/30 03:19:37;;;;;;;;;9.33;8.33;;;;;-144.24;100.00;87011.97;5071029;28;69877;-67
2024/01/30 03:22:02;;;;;;;;;11.33;8.00;;;;;-144.24;100.00;86941.16;5039431;28;49472;-68
2024/01/30 03:24:27;;;;;;;;;12.33;9.00;;;;;-144.24;100.00;86967.47;5055496;28;45567;-68
2024/01/30 03:26:53;;;;;;;;;10.00;10.00;;;;;-144.24;100.00;87078.75;5059599;28;69425;-68
2024/01/30 03:29:18;;;;;;;;;9.67;9.67;;;;;-144.24;100.00;86902.69;5057017;28;45715;-68
2024/01/30 03:31:44;;;;;;;;;9.33;9.33;;;;;-144.24;100.00;86866.28;5067738;28;45403;-69
2024/01/30 03:34:09;;;;;;;;;12.33;11.67;;;;;-144.24;100.00;86870.31;5067218;28;45640;-68
2024/01/30 03:36:34;;;;;;;;;12.33;10.00;;;;;-144.24;100.00;86884.50;5068485;28;73688;-67
2024/01/30 03:39:00;;;;;;;;;11.33;10.33;;;;;-144.24;100.00;86886.50;5069014;28;63438;-67
2024/01/30 03:41:26;;;;;;;;;9.67;8.67;;;;;-144.24;100.00;86908.78;5057445;28;45616;-67
2024/01/30 03:43:51;;;;;;;;;12.33;10.00;;;;;-144.24;100.00;86809.63;5069813;28;45383;-68
2024/01/30 03:46:17;;;;;;;;;10.67;9.67;;;;;-144.24;100.00;87179.94;5063903;28;72327;-68
2024/01/30 03:48:42;;;;;;;;;8.33;8.33;;;;;-144.24;100.00;87240.66;5063450;28;45516;-67
2024/01/30 03:51:08;;;;;;;;;10.00;9.33;;;;;-144.24;100.00;87133.41;5075063;28;45348;-68
2024/01/30 03:53:34;;;;;;;;;8.00;8.00;;;;;-144.24;100.00;87117.22;5053821;28;45414;-68
2024/01/30 03:55:59;;;;;;;;;10.33;10.00;;;;;-144.24;100.00;87319.59;5055441;28;73521;-68
2024/01/30 03:58:24;;;;;;;;;13.00;10.00;;;;;-144.24;100.00;87295.28;5075622;28;48843;-68
2024/01/30 04:00:50;;;;;;;;;14.67;11.00;;;;;-144.24;100.00;87264.94;5048802;28;67043;-68
2024/01/30 04:03:15;;;;;;;;;10.67;9.33;;;;;-144.24;100.00;87204.22;5076124;28;59992;-68
2024/01/30 04:05:41;;;;;;;;;11.00;10.00;;;;;-144.24;100.00;87119.22;5055649;28;45847;-67
2024/01/30 04:08:07;;;;;;;;;11.75;10.75;;;;;-144.24;100.00;87175.91;5073698;28;45459;-68
2024/01/30 04:10:32;;;;;;;;;10.50;10.25;;;;;-144.24;100.00;86902.69;5069970;28;45464;-69
2024/01/30 04:12:57;;;;;;;;;15.75;10.50;;;;;-144.24;100.00;86943.19;5053591;28;45416;-69
2024/01/30 04:15:23;;;;;;;;;16.00;11.67;;;;;-144.24;100.00;87082.81;5072534;28;61119;-68
2024/01/30 04:17:48;;;;;;;;;10.00;8.25;;;;;-144.24;100.00;86935.09;5074153;28;64144;-67
2024/01/30 04:20:15;;;;;;;;;14.00;10.33;;;;;-144.24;100.00;86880.44;5073667;28;45734;-67
2024/01/30 04:22:45;;;;;;;;;8.50;8.50;;;;;-144.24;100.00;86607.28;5053271;28;45622;-68
2024/01/30 04:25:11;;;;;;;;;11.67;9.00;;;;;-144.24;100.00;86431.22;5075974;28;46922;-69
2024/01/30 04:27:37;;;;;;;;;14.00;10.00;;;;;-144.24;100.00;86392.78;5073890;28;45196;-68
2024/01/30 04:30:02;;;;;;;;;12.33;9.00;;;;;-144.24;100.00;86204.63;5065010;28;45655;-67
2024/01/30 04:32:27;;;;;;;;;10.33;9.33;;;;;-144.24;100.00;86394.81;5063489;28;45604;-68
2024/01/30 04:34:53;;;;;;;;;10.67;9.00;;;;;-144.24;100.00;86176.31;5071847;28;70194;-67
2024/01/30 04:37:18;;;;;;;;;11.00;9.67;;;;;-144.24;100.00;86135.84;5063780;28;68693;-69
2024/01/30 04:39:43;;;;;;;;;11.33;10.33;;;;;-144.24;100.00;85978.03;5064236;28;60248;-67
2024/01/30 04:42:09;;;;;;;;;8.33;8.00;;;;;-144.24;100.00;85781.78;5050352;28;54707;-68
2024/01/30 04:44:34;;;;;;;;;11.00;11.00;;;;;-144.24;100.00;85832.38;5059415;28;45617;-68
2024/01/30 04:47:01;;;;;;;;;10.33;10.00;;;;;-144.24;100.00;85727.16;5063878;28;45260;-69
2024/01/30 04:49:27;;;;;;;;;11.33;9.33;;;;;-144.24;100.00;85615.91;5068885;28;45362;-68
2024/01/30 04:51:52;;;;;;;;;12.00;9.67;;;;;-144.24;100.00;85555.22;5074280;28;45552;-68
2024/01/30 04:54:17;;;;;;;;;14.00;10.00;;;;;-144.24;100.00;85464.19;5074787;28;49550;-68
2024/01/30 04:56:43;;;;;;;;;12.67;11.67;;;;;-144.24;100.00;85205.28;5064384;28;56773;-67
2024/01/30 04:59:08;;;;;;;;;10.00;8.33;;;;;-144.24;100.00;85185.03;5068377;28;54264;-67
2024/01/30 05:01:34;;;;;;;;;9.33;7.33;;;;;-144.24;100.00;85085.94;5064155;28;45541;-67
2024/01/30 05:03:59;;;;;;;;;12.67;10.00;;;;;-144.24;100.00;85025.25;5074601;28;46524;-68
2024/01/30 05:06:27;;;;;;;;;11.00;8.00;;;;;-144.24;100.00;85067.72;5070193;28;62011;-67
2024/01/30 05:08:53;;;;;;;;;11.00;9.67;;;;;-144.24;100.00;84823.00;5073802;28;64420;-68
2024/01/30 05:11:18;;;;;;;;;11.67;9.67;;;;;-144.24;100.00;84905.91;5070544;28;45478;-67
2024/01/30 05:13:43;;;;;;;;;10.00;8.00;;;;;-144.24;100.00;84671.31;5065089;28;46300;-68
2024/01/30 05:16:09;;;;;;;;;10.00;10.00;;;;;-144.24;100.00;84636.94;5057525;28;61396;-68
2024/01/30 05:18:34;;;;;;;;;10.33;8.67;;;;;-144.24;100.00;84531.75;5067819;28;45478;-67
2024/01/30 05:20:59;;;;;;;;;8.33;8.33;;;;;-144.24;100.00;84640.97;5070964;28;45669;-68
2024/01/30 05:23:25;;;;;;;;;11.00;9.67;;;;;-144.24;100.00;84519.63;5073033;28;70294;-69
2024/01/30 05:25:50;;;;;;;;;10.67;10.33;;;;;-144.24;100.00;84606.59;5069576;28;68424;-68
2024/01/30 05:28:15;;;;;;;;;15.67;10.67;;;;;-144.24;100.00;84414.47;5071050;28;65431;-67
2024/01/30 05:30:41;;;;;;;;;10.00;9.33;;;;;-144.24;100.00;84359.84;5070965;28;64909;-68
2024/01/30 05:33:06;;;;;;;;;10.00;8.33;;;;;-144.24;100.00;84361.88;5065984;28;63645;-68
2024/01/30 05:35:31;;;;;;;;;15.67;9.00;;;;;-144.24;100.00;84232.44;5075271;28;45486;-68
2024/01/30 05:37:57;;;;;;;;;9.67;9.67;;;;;-144.24;100.00;84285.03;5075793;28;45390;-68
2024/01/30 05:40:22;;;;;;;;;11.00;9.67;;;;;-144.24;100.00;84175.84;5070582;28;45553;-69
2024/01/30 05:42:48;;;;;;;;;11.33;9.33;;;;;-144.24;100.00;84064.63;5070018;28;46462;-68
2024/01/30 05:45:13;;;;;;;;;11.67;11.00;;;;;-144.24;100.00;84066.63;5050159;28;64851;-68
2024/01/30 05:47:39;;;;;;;;;13.33;11.00;;;;;-144.24;100.00;83739.06;5065485;28;63293;-68
2024/01/30 05:50:05;;;;;;;;;10.33;9.00;;;;;-144.24;100.00;83783.53;5059587;28;45386;-70
2024/01/30 05:52:30;;;;;;;;;11.00;11.00;;;;;-144.24;100.00;83563.16;5058578;28;46194;-67
2024/01/30 05:54:55;;;;;;;;;10.00;10.00;;;;;-144.24;100.00;83344.78;5064245;28;65681;-67
2024/01/30 05:57:21;;;;;;;;;11.67;10.33;;;;;-144.24;100.00;83340.75;5075779;28;45314;-68
2024/01/30 05:59:47;;;;;;;;;17.00;12.00;;;;;-144.24;100.00;82991.00;5072863;28;65588;-68
2024/01/30 06:02:13;;;;;;;;;12.33;12.33;;;;;-144.24;100.00;82841.38;5070361;28;45941;-67
2024/01/30 06:04:38;;;;;;;;;11.67;9.00;;;;;-144.24;100.00;82827.25;5075909;28;45388;-68
2024/01/30 06:07:06;;;;;;;;;10.67;9.67;;;;;-144.24;100.00;82805.00;5072357;28;62912;-67
2024/01/30 06:09:31;;;;;;;;;14.67;12.00;;;;;-144.24;100.00;82821.19;5075246;28;45488;-68
2024/01/30 06:11:56;;;;;;;;;9.00;8.00;;;;;-144.24;100.00;82550.31;5070177;28;45837;-69
2024/01/30 06:14:22;;;;;;;;;11.33;11.33;;;;;-144.24;100.00;82558.38;5072633;28;45303;-67
2024/01/30 06:16:47;;;;;;;;;16.33;12.00;;;;;-144.24;100.00;82429.03;5068200;28;63216;-68
2024/01/30 06:19:12;;;;;;;;;14.33;12.33;;;;;-144.24;100.00;82285.50;5067875;28;63236;-68
2024/01/30 06:21:38;;;;;;;;;13.00;10.33;;;;;-144.24;100.00;82190.50;5053799;28;61698;-68
2024/01/30 06:24:04;;;;;;;;;12.67;11.00;;;;;-144.24;100.00;82038.91;5070090;28;45371;-68
2024/01/30 06:26:29;;;;;;;;;11.00;11.00;;;;;-144.24;100.00;82119.75;5058158;28;45409;-67
2024/01/30 06:28:55;;;;;;;;;18.00;12.00;;;;;-144.24;100.00;82004.56;5076101;28;53716;-68
2024/01/30 06:31:20;;;;;;;;;13.00;10.00;;;;;-144.24;100.00;82073.28;5060020;28;45396;-67
2024/01/30 06:33:49;;;;;;;;;12.67;11.33;;;;;-144.24;100.00;81919.66;5215240;22;45609;-68
2024/01/30 06:36:15;;;;;;;;;13.33;11.00;;;;;-144.24;100.00;81814.56;5093462;27;45338;-68
2024/01/30 06:38:41;;;;;;;;;17.00;12.00;;;;;-144.24;100.00;81697.34;5092780;27;45320;-68
2024/01/30 06:41:06;;;;;;;;;10.67;10.33;;;;;-144.24;100.00;81624.59;5067263;27;46374;-68
2024/01/30 06:43:31;;;;;;;;;12.67;12.00;;;;;-144.24;100.00;81517.50;5091857;27;69428;-68
2024/01/30 06:45:57;;;;;;;;;11.67;11.33;;;;;-144.24;100.00;81450.81;5091738;27;45412;-67
2024/01/30 06:48:22;;;;;;;;;15.67;13.00;;;;;-144.24;100.00;81305.31;5072586;27;45659;-68
2024/01/30 06:50:49;;;;;;;;;8.67;8.67;;;;;-144.24;100.00;81289.16;5080003;27;70923;-69
2024/01/30 06:53:14;;;;;;;;;17.33;10.33;;;;;-144.24;100.00;80982.00;5073592;27;46535;-69
2024/01/30 06:55:39;;;;;;;;;13.33;12.00;;;;;-144.24;100.00;80872.88;5079188;27;45504;-72
2024/01/30 06:58:05;;;;;;;;;12.00;10.67;;;;;-144.24;100.00;81099.19;5068511;27;45441;-70
2024/01/30 07:00:30;;;;;;;;;17.67;13.67;;;;;-144.24;100.00;80806.22;5079404;27;62210;-70
2024/01/30 07:02:56;;;;;;;;;14.33;11.67;;;;;-144.24;100.00;80592.03;5082057;27;45910;-70
2024/01/30 07:05:21;;;;;;;;;10.67;10.67;;;;;-144.24;100.00;80618.31;5077972;27;45413;-68
2024/01/30 07:07:47;;;;;;;;;1.00;1.00;;;;;-144.24;100.00;80585.97;5086412;27;45449;-69
2024/01/30 07:10:12;;;;;;;;;13.33;13.00;;;;;-144.24;100.00;80484.97;5080128;27;62408;-69
2024/01/30 07:12:38;;;;;;;;;12.33;12.33;;;;;-144.24;100.00;80327.38;5078817;27;45563;-69
2024/01/30 07:15:04;;;;;;;;;13.00;12.00;;;;;-144.24;100.00;80367.78;5082180;27;45655;-70
2024/01/30 07:17:29;;;;;;;;;13.00;11.67;;;;;-144.24;100.00;80311.22;5071524;27;45662;-70
2024/01/30 07:19:54;;;;;;;;;12.33;12.00;;;;;-144.24;100.00;80147.56;5078370;27;45668;-72
2024/01/30 07:22:20;;;;;;;;;13.67;12.00;;;;;-144.24;100.00;80173.84;5077986;27;45579;-69
2024/01/30 07:24:47;;;;;;;;;11.33;9.67;;;;;-144.24;100.00;80230.41;5078527;27;57376;-72
2024/01/30 07:27:13;;;;;;;;;16.00;13.00;;;;;-144.24;100.00;80331.41;5078572;27;45533;-69
2024/01/30 07:29:39;;;;;;;;;19.67;16.33;;;;;-144.24;100.00;80266.78;5069116;27;47712;-70
2024/01/30 07:32:04;;;;;;;;;15.00;13.67;;;;;-144.24;100.00;80363.75;5083439;27;55016;-69
2024/01/30 07:34:29;;;;;;;;;15.67;12.33;;;;;-144.24;100.00;80606.19;5089936;27;46303;-69
2024/01/30 07:36:55;;;;;;;;;13.67;12.67;;;;;-144.24;100.00;80812.28;5093937;27;45401;-68
2024/01/30 07:39:20;;;;;;;;;14.33;14.00;;;;;-144.24;100.00;80921.38;5096051;27;53717;-70
2024/01/30 07:41:46;;;;;;;;;14.67;13.00;;;;;-144.24;100.00;80810.25;5106672;22;46106;-69
2024/01/30 07:44:11;;;;;;;;;19.67;15.00;;;;;-144.24;100.00;81131.53;5090116;22;46959;-69
2024/01/30 07:46:37;;;;;;;;;14.33;14.33;;;;;-144.24;100.00;80935.53;5213902;22;62853;-71
2024/01/30 07:49:02;;;;;;;;;13.67;13.67;;;;;-144.24;100.00;81139.63;5082898;27;45833;-70
2024/01/30 07:51:29;;;;;;;;;18.00;14.00;;;;;-144.24;100.00;80994.13;5087599;27;45287;-70
2024/01/30 07:53:54;;;;;;;;;15.00;13.67;;;;;-144.24;100.00;80971.91;5074160;27;45592;-74
2024/01/30 07:56:20;;;;;;;;;14.00;13.00;;;;;-144.24;100.00;80676.91;5075955;27;45416;-70
2024/01/30 07:58:45;;;;;;;;;14.67;13.33;;;;;-144.24;100.00;80571.84;5090430;27;56618;-69
2024/01/30 08:01:10;;;;;;;;;16.67;13.00;;;;;-144.24;100.00;80551.63;5090347;27;48245;-70
2024/01/30 08:03:36;;;;;;;;;18.00;15.33;;;;;-144.24;100.00;80305.16;5086969;27;69468;-69
2024/01/30 08:06:02;;;;;;;;;15.67;15.67;;;;;-144.24;100.00;80070.81;5086648;27;45593;-70
2024/01/30 08:08:28;;;;;;;;;17.67;16.33;;;;;-144.24;100.00;80064.75;5087960;27;46070;-69
2024/01/30 08:10:53;;;;;;;;;14.67;13.00;;;;;-144.24;100.00;79903.13;5093226;27;45250;-70
2024/01/30 08:13:19;;;;;;;;;21.00;14.33;;;;;-144.24;100.00;79769.81;5071318;27;45232;-69
2024/01/30 08:15:44;;;;;;;;;19.00;17.00;;;;;-144.24;100.00;79614.28;5079455;27;65507;-69
2024/01/30 08:18:09;;;;;;;;;12.67;12.00;;;;;-144.24;100.00;79472.88;5083103;27;71351;-70
2024/01/30 08:20:34;;;;;;;;;17.67;14.00;;;;;-144.24;100.00;79309.28;5060676;27;45434;-70
2024/01/30 08:23:00;;;;;;;;;18.33;15.67;;;;;-144.24;100.00;79139.63;5082675;27;57570;-69
2024/01/30 08:25:26;;;;;;;;;17.67;16.00;;;;;-144.24;100.00;79024.50;5082997;27;45602;-69
2024/01/30 08:27:51;;;;;;;;;15.00;13.67;;;;;-144.24;100.00;78836.69;5095057;27;47576;-70
2024/01/30 08:30:16;;;;;;;;;13.33;12.00;;;;;-144.24;100.00;78901.31;5072423;27;45338;-70
2024/01/30 08:32:42;;;;;;;;;20.33;17.33;;;;;-144.24;100.00;78434.81;5093460;27;45346;-70
2024/01/30 08:35:08;;;;;;;;;19.33;17.67;;;;;-144.24;100.00;78410.59;5083604;27;54043;-69
2024/01/30 08:37:33;;;;;;;;;19.33;15.67;;;;;-144.24;100.00;78301.53;5093276;27;45560;-70
2024/01/30 08:39:59;;;;;;;;;21.33;17.67;;;;;-144.24;100.00;78091.56;5086320;27;45355;-70
2024/01/30 08:42:25;;;;;;;;;15.00;14.00;;;;;-144.24;100.00;77934.06;5075241;27;45461;-70
2024/01/30 08:44:52;;;;;;;;;17.33;15.33;;;;;-144.24;100.00;77899.72;5077939;27;45472;-69
2024/01/30 08:47:18;;;;;;;;;21.00;15.00;;;;;-144.24;100.00;77689.75;5094120;27;46390;-69
2024/01/30 08:49:44;;;;;;;;;21.00;19.67;;;;;-144.24;100.00;77689.75;5076665;27;45424;-70
2024/01/30 08:52:10;;;;;;;;;19.33;14.33;;;;;-144.24;100.00;77562.56;5079048;27;45337;-69
2024/01/30 08:54:35;;;;;;;;;17.00;16.00;;;;;-144.24;100.00;77689.75;5090800;27;45308;-69
2024/01/30 08:57:01;;;;;;;;;18.33;18.00;;;;;-144.24;100.00;77681.69;5099155;27;45861;-70
2024/01/30 08:59:26;;;;;;;;;14.33;14.33;;;;;-144.24;100.00;77588.81;5086154;27;47188;-69
2024/01/30 09:01:54;;;;;;;;;17.33;13.33;;;;;-144.24;100.00;77485.84;5088151;27;50761;-70
2024/01/30 09:04:20;;;;;;;;;15.33;14.00;;;;;-144.24;100.00;77265.81;5092084;27;45394;-69
2024/01/30 09:06:45;;;;;;;;;13.00;12.00;;;;;-144.24;100.00;77356.66;5094773;27;45876;-69
2024/01/30 09:09:11;;;;;;;;;15.00;13.33;;;;;-144.24;100.00;77386.94;5093066;27;45413;-70
2024/01/30 09:11:36;;;;;;;;;16.00;11.67;;;;;-144.24;100.00;77170.91;5078304;27;45504;-70
2024/01/30 09:14:01;;;;;;;;;16.67;13.33;;;;;-144.24;100.00;77243.59;5081394;27;45429;-69
2024/01/30 09:16:27;;;;;;;;;14.33;12.00;;;;;-144.24;100.00;77203.22;5090112;27;64174;-70
2024/01/30 09:18:52;;;;;;;;;17.00;12.33;;;;;-144.24;100.00;77172.94;5086648;27;69109;-69
2024/01/30 09:21:17;;;;;;;;;11.67;11.67;;;;;-144.24;100.00;77011.44;5095676;27;45161;-70
2024/01/30 09:23:43;;;;;;;;;12.00;12.00;;;;;-144.24;100.00;76894.38;5093722;27;45626;-69
2024/01/30 09:26:08;;;;;;;;;14.00;11.67;;;;;-144.24;100.00;76906.47;5089990;27;46083;-70
2024/01/30 09:28:33;;;;;;;;;11.33;11.00;;;;;-144.24;100.00;76860.06;5086281;27;69036;-69
2024/01/30 09:30:59;;;;;;;;;8.33;6.67;;;;;-144.24;100.00;76833.81;5099168;27;45538;-69
2024/01/30 09:33:24;;;;;;;;;11.00;8.33;;;;;-144.24;100.00;76960.97;5095694;27;64260;-70
2024/01/30 09:35:50;;;;;;;;;12.67;12.33;;;;;-144.24;100.00;76954.94;5098609;27;71038;-70
2024/01/30 09:38:16;;;;;;;;;10.33;7.00;;;;;-144.24;100.00;76860.06;5085188;27;45410;-69
2024/01/30 09:40:42;;;;;;;;;10.67;10.67;;;;;-144.24;100.00;76837.84;5094079;27;45329;-70
2024/01/30 09:43:07;;;;;;;;;13.67;12.00;;;;;-144.24;100.00;76904.47;5073142;27;45477;-70
2024/01/30 09:45:33;;;;;;;;;14.00;12.33;;;;;-144.24;100.00;76807.56;5093357;27;65672;-70
2024/01/30 09:47:59;;;;;;;;;21.00;13.67;;;;;-144.24;100.00;76684.44;5069358;27;46171;-70
2024/01/30 09:50:24;;;;;;;;;14.67;10.67;;;;;-144.24;100.00;76605.72;5073881;27;45498;-69
2024/01/30 09:52:51;;;;;;;;;16.67;13.33;;;;;-144.24;100.00;76742.97;5077042;27;53268;-70
2024/01/30 09:55:16;;;;;;;;;11.67;9.33;;;;;-144.24;100.00;76474.53;5060223;27;46167;-69
2024/01/30 09:57:42;;;;;;;;;11.00;10.67;;;;;-144.24;100.00;76490.69;5091318;27;45223;-70
2024/01/30 10:00:08;;;;;;;;;11.33;10.67;;;;;-144.24;100.00;76418.03;5057015;27;45436;-70
2024/01/30 10:02:34;;;;;;;;;15.00;10.33;;;;;-144.24;100.00;76367.56;5092051;27;45413;-70
2024/01/30 10:05:00;;;;;;;;;11.67;10.00;;;;;-144.24;100.00;76379.66;5080163;27;45771;-70
2024/01/30 10:07:26;;;;;;;;;12.00;9.00;;;;;-144.24;100.00;76311.06;5076327;27;46214;-70
2024/01/30 10:09:53;;;;;;;;;12.33;7.67;;;;;-144.24;100.00;76361.50;5076473;27;45490;-69
2024/01/30 10:12:18;;;;;;;;;9.00;7.33;;;;;-144.24;100.00;76171.78;5090867;27;45287;-70
2024/01/30 10:14:44;;;;;;;;;7.33;7.33;;;;;-144.24;100.00;76198.03;5088697;27;46498;-70
2024/01/30 10:17:10;;;;;;;;;14.33;10.00;;;;;-144.24;100.00;76078.97;5086442;27;45340;-69
2024/01/30 10:19:36;;;;;;;;;13.33;7.67;;;;;-144.24;100.00;75939.72;5076454;28;45371;-69
2024/01/30 10:22:03;;;;;;;;;8.00;7.33;;;;;-144.24;100.00;75856.97;5079953;27;45512;-71
2024/01/30 10:24:29;;;;;;;;;11.67;6.33;;;;;-144.24;100.00;75937.69;5090706;27;47012;-69
2024/01/30 10:26:54;;;;;;;;;8.33;8.33;;;;;-144.24;100.00;76153.63;5093412;27;45279;-70
2024/01/30 10:29:20;;;;;;;;;10.00;7.33;;;;;-144.24;100.00;76305.00;5091575;27;45299;-69
2024/01/30 10:31:45;;;;;;;;;8.00;6.33;;;;;-144.24;100.00;76395.81;5086185;27;45711;-71
2024/01/30 10:34:10;;;;;;;;;12.00;8.00;;;;;-144.24;100.00;76732.88;5095900;27;46098;-71
2024/01/30 10:36:46;;;;;;;;;11.67;8.00;;;;;-144.24;100.00;76518.94;5086986;27;45358;-70
2024/01/30 10:39:14;;;;;;;;;7.67;7.00;;;;;-144.24;100.00;76839.88;5062791;27;66478;-70
2024/01/30 10:41:44;;;;;;;;;7.67;7.67;;;;;-144.24;100.00;76640.03;5078301;27;45411;-70
2024/01/30 10:44:10;;;;;;;;;7.00;7.00;;;;;-144.24;100.00;77039.72;5065332;27;45800;-69
2024/01/30 10:46:38;;;;;;;;;6.33;6.00;;;;;-144.24;100.00;77489.88;5067394;27;45551;-70
2024/01/30 10:49:04;;;;;;;;;12.33;7.67;;;;;-144.24;100.00;77948.19;5081284;27;45379;-70